sensor_id;sensor_type;location;lat;lon;timestamp;P1;durP1;ratioP1;P2;durP2;ratioP2
38222;SDS011;24024;51.186;6.458;2023-09-19T00:00:46;9.55;;;3.15;;
38222;SDS011;24024;51.186;6.458;2023-09-19T00:03:14;10.73;;;2.75;;
38222;SDS011;24024;51.186;6.458;2023-09-19T00:05:44;9.90;;;2.92;;
38222;SDS011;24024;51.186;6.458;2023-09-19T00:08:15;11.80;;;2.70;;
38222;SDS011;24024;51.186;6.458;2023-09-19T00:10:42;11.95;;;2.58;;
38222;SDS011;24024;51.186;6.458;2023-09-19T00:13:09;9.60;;;2.90;;
38222;SDS011;24024;51.186;6.458;2023-09-19T00:15:42;9.38;;;2.38;;
38222;SDS011;24024;51.186;6.458;2023-09-19T00:18:19;11.88;;;2.72;;
38222;SDS011;24024;51.186;6.458;2023-09-19T00:20:50;10.48;;;2.40;;
38222;SDS011;24024;51.186;6.458;2023-09-19T00:23:19;11.43;;;2.95;;
38222;SDS011;24024;51.186;6.458;2023-09-19T00:25:48;12.38;;;3.80;;
38222;SDS011;24024;51.186;6.458;2023-09-19T00:28:17;8.68;;;3.08;;
38222;SDS011;24024;51.186;6.458;2023-09-19T00:30:47;12.93;;;2.67;;
38222;SDS011;24024;51.186;6.458;2023-09-19T00:33:19;11.70;;;2.45;;
38222;SDS011;24024;51.186;6.458;2023-09-19T00:35:52;12.77;;;2.50;;
38222;SDS011;24024;51.186;6.458;2023-09-19T00:38:20;10.38;;;2.22;;
38222;SDS011;24024;51.186;6.458;2023-09-19T00:40:55;12.60;;;2.63;;
38222;SDS011;24024;51.186;6.458;2023-09-19T00:43:26;11.82;;;2.70;;
38222;SDS011;24024;51.186;6.458;2023-09-19T00:45:56;10.38;;;2.90;;
38222;SDS011;24024;51.186;6.458;2023-09-19T00:48:29;9.43;;;2.40;;
38222;SDS011;24024;51.186;6.458;2023-09-19T00:51:02;7.97;;;2.30;;
38222;SDS011;24024;51.186;6.458;2023-09-19T00:53:31;11.38;;;2.65;;
38222;SDS011;24024;51.186;6.458;2023-09-19T00:56:02;11.18;;;2.80;;
38222;SDS011;24024;51.186;6.458;2023-09-19T00:58:33;8.32;;;2.40;;
38222;SDS011;24024;51.186;6.458;2023-09-19T01:01:03;10.32;;;2.95;;
38222;SDS011;24024;51.186;6.458;2023-09-19T01:03:33;10.23;;;2.50;;
38222;SDS011;24024;51.186;6.458;2023-09-19T01:06:07;8.93;;;2.30;;
38222;SDS011;24024;51.186;6.458;2023-09-19T01:08:36;12.23;;;2.60;;
38222;SDS011;24024;51.186;6.458;2023-09-19T01:11:11;14.32;;;2.45;;
38222;SDS011;24024;51.186;6.458;2023-09-19T01:13:45;14.68;;;2.53;;
38222;SDS011;24024;51.186;6.458;2023-09-19T01:22:53;9.55;;;2.28;;
38222;SDS011;24024;51.186;6.458;2023-09-19T01:25:33;9.27;;;2.83;;
38222;SDS011;24024;51.186;6.458;2023-09-19T01:31:06;7.82;;;2.00;;
38222;SDS011;24024;51.186;6.458;2023-09-19T01:33:54;10.90;;;2.47;;
38222;SDS011;24024;51.186;6.458;2023-09-19T01:36:34;7.25;;;2.00;;
38222;SDS011;24024;51.186;6.458;2023-09-19T01:39:07;12.55;;;2.35;;
38222;SDS011;24024;51.186;6.458;2023-09-19T01:42:01;17.75;;;2.45;;
38222;SDS011;24024;51.186;6.458;2023-09-19T01:47:31;7.15;;;1.80;;
38222;SDS011;24024;51.186;6.458;2023-09-19T01:50:22;8.38;;;1.90;;
38222;SDS011;24024;51.186;6.458;2023-09-19T01:53:09;12.27;;;2.30;;
38222;SDS011;24024;51.186;6.458;2023-09-19T01:55:54;10.00;;;2.03;;
38222;SDS011;24024;51.186;6.458;2023-09-19T02:01:02;9.43;;;1.98;;
38222;SDS011;24024;51.186;6.458;2023-09-19T02:03:33;8.10;;;1.90;;
38222;SDS011;24024;51.186;6.458;2023-09-19T02:08:37;11.57;;;2.05;;
38222;SDS011;24024;51.186;6.458;2023-09-19T02:11:06;9.95;;;2.28;;
38222;SDS011;24024;51.186;6.458;2023-09-19T02:13:33;8.25;;;1.85;;
38222;SDS011;24024;51.186;6.458;2023-09-19T02:16:00;8.07;;;2.42;;
38222;SDS011;24024;51.186;6.458;2023-09-19T02:18:28;10.23;;;2.00;;
38222;SDS011;24024;51.186;6.458;2023-09-19T02:20:56;9.65;;;2.00;;
38222;SDS011;24024;51.186;6.458;2023-09-19T02:23:26;9.20;;;2.33;;
38222;SDS011;24024;51.186;6.458;2023-09-19T02:25:56;8.43;;;1.92;;
38222;SDS011;24024;51.186;6.458;2023-09-19T02:28:32;11.75;;;2.53;;
38222;SDS011;24024;51.186;6.458;2023-09-19T02:31:04;9.88;;;2.00;;
38222;SDS011;24024;51.186;6.458;2023-09-19T02:33:36;6.55;;;1.95;;
38222;SDS011;24024;51.186;6.458;2023-09-19T02:36:05;11.75;;;2.10;;
38222;SDS011;24024;51.186;6.458;2023-09-19T02:38:36;7.75;;;2.08;;
38222;SDS011;24024;51.186;6.458;2023-09-19T02:41:03;11.68;;;2.65;;
38222;SDS011;24024;51.186;6.458;2023-09-19T02:43:30;15.00;;;2.45;;
38222;SDS011;24024;51.186;6.458;2023-09-19T02:45:57;7.63;;;1.92;;
38222;SDS011;24024;51.186;6.458;2023-09-19T02:48:24;9.68;;;1.80;;
38222;SDS011;24024;51.186;6.458;2023-09-19T02:50:52;14.43;;;2.40;;
38222;SDS011;24024;51.186;6.458;2023-09-19T02:53:19;11.93;;;1.95;;
38222;SDS011;24024;51.186;6.458;2023-09-19T02:55:48;10.70;;;2.25;;
38222;SDS011;24024;51.186;6.458;2023-09-19T02:58:20;11.27;;;2.07;;
38222;SDS011;24024;51.186;6.458;2023-09-19T03:00:54;11.20;;;2.13;;
38222;SDS011;24024;51.186;6.458;2023-09-19T03:03:23;10.82;;;1.90;;
38222;SDS011;24024;51.186;6.458;2023-09-19T03:05:51;12.18;;;2.15;;
38222;SDS011;24024;51.186;6.458;2023-09-19T03:08:21;10.18;;;1.98;;
38222;SDS011;24024;51.186;6.458;2023-09-19T03:10:48;11.40;;;2.13;;
38222;SDS011;24024;51.186;6.458;2023-09-19T03:13:18;12.65;;;2.58;;
38222;SDS011;24024;51.186;6.458;2023-09-19T03:15:45;9.10;;;2.20;;
38222;SDS011;24024;51.186;6.458;2023-09-19T03:18:17;10.32;;;2.50;;
38222;SDS011;24024;51.186;6.458;2023-09-19T03:20:54;12.25;;;2.50;;
38222;SDS011;24024;51.186;6.458;2023-09-19T03:23:24;11.80;;;2.60;;
38222;SDS011;24024;51.186;6.458;2023-09-19T03:25:53;10.47;;;2.40;;
38222;SDS011;24024;51.186;6.458;2023-09-19T03:28:22;9.90;;;2.58;;
38222;SDS011;24024;51.186;6.458;2023-09-19T03:31:02;10.60;;;2.30;;
38222;SDS011;24024;51.186;6.458;2023-09-19T03:33:30;7.47;;;2.03;;
38222;SDS011;24024;51.186;6.458;2023-09-19T03:36:00;12.25;;;2.85;;
38222;SDS011;24024;51.186;6.458;2023-09-19T03:38:31;13.88;;;3.03;;
38222;SDS011;24024;51.186;6.458;2023-09-19T03:41:00;11.63;;;3.08;;
38222;SDS011;24024;51.186;6.458;2023-09-19T03:43:28;10.10;;;3.30;;
38222;SDS011;24024;51.186;6.458;2023-09-19T03:46:00;12.65;;;2.83;;
38222;SDS011;24024;51.186;6.458;2023-09-19T03:48:32;14.35;;;3.25;;
38222;SDS011;24024;51.186;6.458;2023-09-19T03:51:02;9.87;;;2.40;;
38222;SDS011;24024;51.186;6.458;2023-09-19T03:53:28;12.95;;;2.80;;
38222;SDS011;24024;51.186;6.458;2023-09-19T03:55:58;12.82;;;4.40;;
38222;SDS011;24024;51.186;6.458;2023-09-19T03:58:26;10.85;;;3.40;;
38222;SDS011;24024;51.186;6.458;2023-09-19T04:00:57;10.52;;;2.38;;
38222;SDS011;24024;51.186;6.458;2023-09-19T04:03:24;11.10;;;3.28;;
38222;SDS011;24024;51.186;6.458;2023-09-19T04:06:01;14.43;;;3.30;;
38222;SDS011;24024;51.186;6.458;2023-09-19T04:08:28;13.82;;;2.63;;
38222;SDS011;24024;51.186;6.458;2023-09-19T04:10:58;11.27;;;2.88;;
38222;SDS011;24024;51.186;6.458;2023-09-19T04:13:25;12.27;;;3.13;;
38222;SDS011;24024;51.186;6.458;2023-09-19T04:15:53;17.20;;;4.20;;
38222;SDS011;24024;51.186;6.458;2023-09-19T04:18:19;12.88;;;2.53;;
38222;SDS011;24024;51.186;6.458;2023-09-19T04:20:48;13.93;;;2.60;;
38222;SDS011;24024;51.186;6.458;2023-09-19T04:23:18;9.93;;;2.10;;
38222;SDS011;24024;51.186;6.458;2023-09-19T04:25:48;9.85;;;2.40;;
38222;SDS011;24024;51.186;6.458;2023-09-19T04:28:15;12.20;;;2.30;;
38222;SDS011;24024;51.186;6.458;2023-09-19T04:30:42;9.80;;;2.55;;
38222;SDS011;24024;51.186;6.458;2023-09-19T04:33:09;12.80;;;3.15;;
38222;SDS011;24024;51.186;6.458;2023-09-19T04:35:37;10.30;;;2.25;;
38222;SDS011;24024;51.186;6.458;2023-09-19T04:38:08;13.15;;;3.00;;
38222;SDS011;24024;51.186;6.458;2023-09-19T04:40:41;9.27;;;2.22;;
38222;SDS011;24024;51.186;6.458;2023-09-19T04:43:11;8.30;;;2.53;;
38222;SDS011;24024;51.186;6.458;2023-09-19T04:45:38;12.23;;;2.42;;
38222;SDS011;24024;51.186;6.458;2023-09-19T04:48:06;15.02;;;2.60;;
38222;SDS011;24024;51.186;6.458;2023-09-19T04:50:34;14.98;;;3.13;;
38222;SDS011;24024;51.186;6.458;2023-09-19T04:53:04;9.55;;;2.47;;
38222;SDS011;24024;51.186;6.458;2023-09-19T04:55:32;13.27;;;2.70;;
38222;SDS011;24024;51.186;6.458;2023-09-19T04:58:01;11.77;;;2.70;;
38222;SDS011;24024;51.186;6.458;2023-09-19T05:00:35;14.18;;;2.47;;
38222;SDS011;24024;51.186;6.458;2023-09-19T05:03:04;14.32;;;2.63;;
38222;SDS011;24024;51.186;6.458;2023-09-19T05:05:32;13.18;;;2.63;;
38222;SDS011;24024;51.186;6.458;2023-09-19T05:08:01;13.38;;;2.50;;
38222;SDS011;24024;51.186;6.458;2023-09-19T05:10:32;12.57;;;3.17;;
38222;SDS011;24024;51.186;6.458;2023-09-19T05:15:36;16.85;;;2.50;;
38222;SDS011;24024;51.186;6.458;2023-09-19T05:18:03;14.10;;;2.60;;
38222;SDS011;24024;51.186;6.458;2023-09-19T05:20:36;12.13;;;2.67;;
38222;SDS011;24024;51.186;6.458;2023-09-19T05:23:06;14.95;;;2.90;;
38222;SDS011;24024;51.186;6.458;2023-09-19T05:25:39;14.60;;;2.67;;
38222;SDS011;24024;51.186;6.458;2023-09-19T05:28:10;15.98;;;3.00;;
38222;SDS011;24024;51.186;6.458;2023-09-19T05:30:41;13.13;;;2.53;;
38222;SDS011;24024;51.186;6.458;2023-09-19T05:33:14;12.05;;;3.15;;
38222;SDS011;24024;51.186;6.458;2023-09-19T05:35:41;12.95;;;2.63;;
38222;SDS011;24024;51.186;6.458;2023-09-19T05:38:10;10.10;;;2.38;;
38222;SDS011;24024;51.186;6.458;2023-09-19T05:40:47;12.50;;;3.00;;
38222;SDS011;24024;51.186;6.458;2023-09-19T05:43:14;8.07;;;2.38;;
38222;SDS011;24024;51.186;6.458;2023-09-19T05:45:43;10.10;;;2.30;;
38222;SDS011;24024;51.186;6.458;2023-09-19T05:48:13;11.65;;;2.95;;
38222;SDS011;24024;51.186;6.458;2023-09-19T05:50:42;10.55;;;2.38;;
38222;SDS011;24024;51.186;6.458;2023-09-19T05:53:10;8.95;;;2.38;;
38222;SDS011;24024;51.186;6.458;2023-09-19T05:55:41;12.35;;;2.70;;
38222;SDS011;24024;51.186;6.458;2023-09-19T05:58:11;12.27;;;2.20;;
38222;SDS011;24024;51.186;6.458;2023-09-19T06:00:40;12.23;;;2.78;;
38222;SDS011;24024;51.186;6.458;2023-09-19T06:03:09;11.25;;;2.40;;
38222;SDS011;24024;51.186;6.458;2023-09-19T06:05:38;14.77;;;2.50;;
38222;SDS011;24024;51.186;6.458;2023-09-19T06:08:08;10.63;;;2.28;;
38222;SDS011;24024;51.186;6.458;2023-09-19T06:10:35;12.80;;;2.80;;
38222;SDS011;24024;51.186;6.458;2023-09-19T06:13:04;12.25;;;3.05;;
38222;SDS011;24024;51.186;6.458;2023-09-19T06:15:36;17.60;;;2.53;;
38222;SDS011;24024;51.186;6.458;2023-09-19T06:18:03;11.55;;;2.40;;
38222;SDS011;24024;51.186;6.458;2023-09-19T06:20:32;14.25;;;2.80;;
38222;SDS011;24024;51.186;6.458;2023-09-19T06:22:59;13.85;;;2.50;;
38222;SDS011;24024;51.186;6.458;2023-09-19T06:25:31;7.95;;;2.38;;
38222;SDS011;24024;51.186;6.458;2023-09-19T06:28:02;12.75;;;2.50;;
38222;SDS011;24024;51.186;6.458;2023-09-19T06:30:31;12.18;;;2.28;;
38222;SDS011;24024;51.186;6.458;2023-09-19T06:32:58;11.38;;;2.10;;
38222;SDS011;24024;51.186;6.458;2023-09-19T06:35:30;10.05;;;2.40;;
38222;SDS011;24024;51.186;6.458;2023-09-19T06:38:03;12.10;;;2.92;;
38222;SDS011;24024;51.186;6.458;2023-09-19T06:40:36;15.38;;;2.78;;
38222;SDS011;24024;51.186;6.458;2023-09-19T06:43:03;14.13;;;2.75;;
38222;SDS011;24024;51.186;6.458;2023-09-19T06:45:31;16.23;;;3.13;;
38222;SDS011;24024;51.186;6.458;2023-09-19T06:47:58;16.88;;;2.67;;
38222;SDS011;24024;51.186;6.458;2023-09-19T06:50:26;14.13;;;2.30;;
38222;SDS011;24024;51.186;6.458;2023-09-19T06:52:54;13.05;;;2.35;;
38222;SDS011;24024;51.186;6.458;2023-09-19T06:55:25;13.38;;;2.30;;
38222;SDS011;24024;51.186;6.458;2023-09-19T06:57:57;12.32;;;2.65;;
38222;SDS011;24024;51.186;6.458;2023-09-19T07:00:29;11.32;;;2.50;;
38222;SDS011;24024;51.186;6.458;2023-09-19T07:02:59;14.45;;;2.75;;
38222;SDS011;24024;51.186;6.458;2023-09-19T07:05:47;12.80;;;3.03;;
38222;SDS011;24024;51.186;6.458;2023-09-19T07:08:16;15.65;;;3.67;;
38222;SDS011;24024;51.186;6.458;2023-09-19T07:10:49;12.48;;;2.75;;
38222;SDS011;24024;51.186;6.458;2023-09-19T07:13:16;11.43;;;2.55;;
38222;SDS011;24024;51.186;6.458;2023-09-19T07:15:45;13.98;;;2.53;;
38222;SDS011;24024;51.186;6.458;2023-09-19T07:18:17;13.32;;;2.97;;
38222;SDS011;24024;51.186;6.458;2023-09-19T07:20:45;13.57;;;2.38;;
38222;SDS011;24024;51.186;6.458;2023-09-19T07:23:21;17.40;;;2.70;;
38222;SDS011;24024;51.186;6.458;2023-09-19T07:25:51;15.33;;;2.23;;
38222;SDS011;24024;51.186;6.458;2023-09-19T07:28:23;10.63;;;2.67;;
38222;SDS011;24024;51.186;6.458;2023-09-19T07:30:52;11.82;;;2.20;;
38222;SDS011;24024;51.186;6.458;2023-09-19T07:33:19;13.05;;;2.30;;
38222;SDS011;24024;51.186;6.458;2023-09-19T07:35:46;13.38;;;2.60;;
38222;SDS011;24024;51.186;6.458;2023-09-19T07:38:14;9.98;;;2.22;;
38222;SDS011;24024;51.186;6.458;2023-09-19T07:40:44;8.93;;;2.15;;
38222;SDS011;24024;51.186;6.458;2023-09-19T07:43:13;15.32;;;2.38;;
38222;SDS011;24024;51.186;6.458;2023-09-19T07:45:46;13.25;;;2.17;;
38222;SDS011;24024;51.186;6.458;2023-09-19T07:48:15;10.13;;;2.47;;
38222;SDS011;24024;51.186;6.458;2023-09-19T07:50:42;14.60;;;2.60;;
38222;SDS011;24024;51.186;6.458;2023-09-19T07:53:12;10.52;;;2.25;;
38222;SDS011;24024;51.186;6.458;2023-09-19T07:55:41;9.63;;;2.08;;
38222;SDS011;24024;51.186;6.458;2023-09-19T07:58:11;11.65;;;2.53;;
38222;SDS011;24024;51.186;6.458;2023-09-19T08:00:39;12.23;;;2.85;;
38222;SDS011;24024;51.186;6.458;2023-09-19T08:03:08;9.60;;;2.38;;
38222;SDS011;24024;51.186;6.458;2023-09-19T08:05:43;11.48;;;2.25;;
38222;SDS011;24024;51.186;6.458;2023-09-19T08:08:15;9.23;;;2.08;;
38222;SDS011;24024;51.186;6.458;2023-09-19T08:10:42;12.73;;;2.53;;
38222;SDS011;24024;51.186;6.458;2023-09-19T08:13:14;12.98;;;2.10;;
38222;SDS011;24024;51.186;6.458;2023-09-19T08:15:45;14.45;;;2.60;;
38222;SDS011;24024;51.186;6.458;2023-09-19T08:18:15;11.52;;;2.45;;
38222;SDS011;24024;51.186;6.458;2023-09-19T08:20:42;13.63;;;2.53;;
38222;SDS011;24024;51.186;6.458;2023-09-19T08:23:12;10.70;;;2.20;;
38222;SDS011;24024;51.186;6.458;2023-09-19T08:25:42;8.35;;;2.15;;
38222;SDS011;24024;51.186;6.458;2023-09-19T08:28:09;9.05;;;2.10;;
38222;SDS011;24024;51.186;6.458;2023-09-19T08:30:38;10.00;;;2.58;;
38222;SDS011;24024;51.186;6.458;2023-09-19T08:33:06;14.13;;;2.50;;
38222;SDS011;24024;51.186;6.458;2023-09-19T08:35:36;8.38;;;1.90;;
38222;SDS011;24024;51.186;6.458;2023-09-19T08:38:08;12.37;;;2.37;;
38222;SDS011;24024;51.186;6.458;2023-09-19T08:40:37;7.22;;;2.17;;
38222;SDS011;24024;51.186;6.458;2023-09-19T08:43:06;14.82;;;2.75;;
38222;SDS011;24024;51.186;6.458;2023-09-19T08:45:34;13.13;;;2.35;;
38222;SDS011;24024;51.186;6.458;2023-09-19T08:50:56;9.07;;;2.20;;
38222;SDS011;24024;51.186;6.458;2023-09-19T08:53:41;9.55;;;2.03;;
38222;SDS011;24024;51.186;6.458;2023-09-19T08:56:18;13.93;;;2.30;;
38222;SDS011;24024;51.186;6.458;2023-09-19T09:01:51;12.52;;;2.22;;
38222;SDS011;24024;51.186;6.458;2023-09-19T09:04:22;10.95;;;2.13;;
38222;SDS011;24024;51.186;6.458;2023-09-19T09:06:49;7.70;;;2.05;;
38222;SDS011;24024;51.186;6.458;2023-09-19T09:09:20;13.68;;;2.90;;
38222;SDS011;24024;51.186;6.458;2023-09-19T09:11:50;9.13;;;2.17;;
38222;SDS011;24024;51.186;6.458;2023-09-19T09:14:19;8.50;;;2.15;;
38222;SDS011;24024;51.186;6.458;2023-09-19T09:16:47;10.57;;;2.35;;
38222;SDS011;24024;51.186;6.458;2023-09-19T09:19:15;15.38;;;2.67;;
38222;SDS011;24024;51.186;6.458;2023-09-19T09:21:51;12.18;;;2.80;;
38222;SDS011;24024;51.186;6.458;2023-09-19T09:26:57;11.95;;;2.33;;
38222;SDS011;24024;51.186;6.458;2023-09-19T09:34:51;10.10;;;2.55;;
38222;SDS011;24024;51.186;6.458;2023-09-19T09:37:27;9.77;;;2.15;;
38222;SDS011;24024;51.186;6.458;2023-09-19T09:39:59;10.85;;;2.17;;
38222;SDS011;24024;51.186;6.458;2023-09-19T09:42:46;10.27;;;1.98;;
38222;SDS011;24024;51.186;6.458;2023-09-19T09:45:14;13.02;;;2.30;;
38222;SDS011;24024;51.186;6.458;2023-09-19T09:47:55;12.38;;;2.47;;
38222;SDS011;24024;51.186;6.458;2023-09-19T09:50:28;11.85;;;2.30;;
38222;SDS011;24024;51.186;6.458;2023-09-19T09:58:35;7.95;;;1.90;;
38222;SDS011;24024;51.186;6.458;2023-09-19T10:01:04;10.48;;;2.15;;
38222;SDS011;24024;51.186;6.458;2023-09-19T10:06:11;12.30;;;2.35;;
38222;SDS011;24024;51.186;6.458;2023-09-19T10:08:57;7.90;;;2.42;;
38222;SDS011;24024;51.186;6.458;2023-09-19T10:11:41;8.93;;;2.30;;
38222;SDS011;24024;51.186;6.458;2023-09-19T10:14:15;11.05;;;2.30;;
38222;SDS011;24024;51.186;6.458;2023-09-19T10:16:47;9.95;;;2.20;;
38222;SDS011;24024;51.186;6.458;2023-09-19T10:19:21;10.68;;;2.67;;
38222;SDS011;24024;51.186;6.458;2023-09-19T10:22:15;10.90;;;1.88;;
38222;SDS011;24024;51.186;6.458;2023-09-19T10:24:47;9.63;;;2.20;;
38222;SDS011;24024;51.186;6.458;2023-09-19T10:27:28;7.25;;;1.75;;
38222;SDS011;24024;51.186;6.458;2023-09-19T10:30:04;10.63;;;2.17;;
38222;SDS011;24024;51.186;6.458;2023-09-19T10:32:36;11.13;;;2.00;;
38222;SDS011;24024;51.186;6.458;2023-09-19T10:35:07;10.15;;;2.08;;
38222;SDS011;24024;51.186;6.458;2023-09-19T10:37:39;8.00;;;1.85;;
38222;SDS011;24024;51.186;6.458;2023-09-19T10:40:07;6.30;;;1.90;;
38222;SDS011;24024;51.186;6.458;2023-09-19T10:42:35;13.50;;;3.00;;
38222;SDS011;24024;51.186;6.458;2023-09-19T10:45:08;10.02;;;2.38;;
38222;SDS011;24024;51.186;6.458;2023-09-19T10:47:39;10.47;;;2.37;;
38222;SDS011;24024;51.186;6.458;2023-09-19T10:50:19;10.95;;;2.00;;
38222;SDS011;24024;51.186;6.458;2023-09-19T10:52:53;9.93;;;2.10;;
38222;SDS011;24024;51.186;6.458;2023-09-19T10:55:34;8.10;;;1.90;;
38222;SDS011;24024;51.186;6.458;2023-09-19T10:58:05;11.23;;;2.70;;
38222;SDS011;24024;51.186;6.458;2023-09-19T11:00:56;9.80;;;2.13;;
38222;SDS011;24024;51.186;6.458;2023-09-19T11:03:39;9.70;;;2.20;;
38222;SDS011;24024;51.186;6.458;2023-09-19T11:08:56;10.27;;;2.35;;
38222;SDS011;24024;51.186;6.458;2023-09-19T11:23:23;9.68;;;2.20;;
38222;SDS011;24024;51.186;6.458;2023-09-19T11:30:33;8.40;;;2.03;;
38222;SDS011;24024;51.186;6.458;2023-09-19T11:36:14;9.57;;;2.45;;
38222;SDS011;24024;51.186;6.458;2023-09-19T11:46:31;9.88;;;2.25;;
38222;SDS011;24024;51.186;6.458;2023-09-19T11:49:07;9.15;;;2.00;;
38222;SDS011;24024;51.186;6.458;2023-09-19T11:51:42;8.85;;;1.80;;
38222;SDS011;24024;51.186;6.458;2023-09-19T11:54:11;10.65;;;1.95;;
38222;SDS011;24024;51.186;6.458;2023-09-19T11:56:51;7.32;;;2.15;;
38222;SDS011;24024;51.186;6.458;2023-09-19T11:59:21;7.10;;;2.08;;
38222;SDS011;24024;51.186;6.458;2023-09-19T12:01:52;6.68;;;1.80;;
38222;SDS011;24024;51.186;6.458;2023-09-19T12:07:19;7.85;;;1.90;;
38222;SDS011;24024;51.186;6.458;2023-09-19T12:09:47;6.20;;;2.10;;
38222;SDS011;24024;51.186;6.458;2023-09-19T12:12:24;9.73;;;1.95;;
38222;SDS011;24024;51.186;6.458;2023-09-19T12:14:54;9.52;;;2.38;;
38222;SDS011;24024;51.186;6.458;2023-09-19T12:17:39;6.20;;;1.90;;
38222;SDS011;24024;51.186;6.458;2023-09-19T12:20:11;7.75;;;1.92;;
38222;SDS011;24024;51.186;6.458;2023-09-19T12:25:16;7.97;;;1.60;;
38222;SDS011;24024;51.186;6.458;2023-09-19T12:27:48;10.15;;;1.80;;
38222;SDS011;24024;51.186;6.458;2023-09-19T12:30:27;6.80;;;1.80;;
38222;SDS011;24024;51.186;6.458;2023-09-19T12:33:00;9.25;;;2.00;;
38222;SDS011;24024;51.186;6.458;2023-09-19T12:35:30;6.82;;;1.70;;
38222;SDS011;24024;51.186;6.458;2023-09-19T12:38:04;7.15;;;1.70;;
38222;SDS011;24024;51.186;6.458;2023-09-19T12:40:32;5.43;;;1.60;;
38222;SDS011;24024;51.186;6.458;2023-09-19T12:43:06;7.97;;;1.60;;
38222;SDS011;24024;51.186;6.458;2023-09-19T12:45:35;8.10;;;1.55;;
38222;SDS011;24024;51.186;6.458;2023-09-19T12:48:23;5.28;;;1.40;;
38222;SDS011;24024;51.186;6.458;2023-09-19T12:51:01;8.25;;;1.80;;
38222;SDS011;24024;51.186;6.458;2023-09-19T12:53:37;6.22;;;1.65;;
38222;SDS011;24024;51.186;6.458;2023-09-19T12:56:10;6.80;;;1.55;;
38222;SDS011;24024;51.186;6.458;2023-09-19T13:01:23;4.38;;;1.17;;
38222;SDS011;24024;51.186;6.458;2023-09-19T13:06:50;5.33;;;1.63;;
38222;SDS011;24024;51.186;6.458;2023-09-19T13:09:22;6.45;;;1.65;;
38222;SDS011;24024;51.186;6.458;2023-09-19T13:11:54;4.85;;;1.02;;
38222;SDS011;24024;51.186;6.458;2023-09-19T13:14:22;5.32;;;1.35;;
38222;SDS011;24024;51.186;6.458;2023-09-19T13:19:47;5.45;;;1.45;;
38222;SDS011;24024;51.186;6.458;2023-09-19T13:25:12;7.20;;;1.70;;
38222;SDS011;24024;51.186;6.458;2023-09-19T13:27:49;5.00;;;1.20;;
38222;SDS011;24024;51.186;6.458;2023-09-19T13:30:21;4.82;;;1.00;;
38222;SDS011;24024;51.186;6.458;2023-09-19T13:32:52;4.82;;;1.20;;
38222;SDS011;24024;51.186;6.458;2023-09-19T13:35:23;6.53;;;1.38;;
38222;SDS011;24024;51.186;6.458;2023-09-19T13:37:49;6.60;;;1.83;;
38222;SDS011;24024;51.186;6.458;2023-09-19T13:40:18;8.18;;;1.80;;
38222;SDS011;24024;51.186;6.458;2023-09-19T13:42:45;4.57;;;1.58;;
38222;SDS011;24024;51.186;6.458;2023-09-19T13:45:12;5.57;;;2.00;;
38222;SDS011;24024;51.186;6.458;2023-09-19T13:47:41;5.68;;;1.70;;
38222;SDS011;24024;51.186;6.458;2023-09-19T13:50:09;4.78;;;1.00;;
38222;SDS011;24024;51.186;6.458;2023-09-19T13:52:36;4.40;;;1.00;;
38222;SDS011;24024;51.186;6.458;2023-09-19T13:55:04;5.07;;;1.00;;
38222;SDS011;24024;51.186;6.458;2023-09-19T13:57:33;5.45;;;1.00;;
38222;SDS011;24024;51.186;6.458;2023-09-19T14:00:00;4.38;;;0.90;;
38222;SDS011;24024;51.186;6.458;2023-09-19T14:02:26;6.47;;;1.10;;
38222;SDS011;24024;51.186;6.458;2023-09-19T14:04:56;4.47;;;1.08;;
38222;SDS011;24024;51.186;6.458;2023-09-19T14:07:24;5.50;;;1.00;;
38222;SDS011;24024;51.186;6.458;2023-09-19T14:09:51;3.78;;;1.10;;
38222;SDS011;24024;51.186;6.458;2023-09-19T14:12:23;4.43;;;1.10;;
38222;SDS011;24024;51.186;6.458;2023-09-19T14:14:55;5.05;;;1.00;;
38222;SDS011;24024;51.186;6.458;2023-09-19T14:17:24;5.38;;;1.10;;
38222;SDS011;24024;51.186;6.458;2023-09-19T14:19:52;3.15;;;1.05;;
38222;SDS011;24024;51.186;6.458;2023-09-19T14:22:22;4.72;;;1.10;;
38222;SDS011;24024;51.186;6.458;2023-09-19T14:24:51;6.25;;;0.85;;
38222;SDS011;24024;51.186;6.458;2023-09-19T14:27:21;4.03;;;1.00;;
38222;SDS011;24024;51.186;6.458;2023-09-19T14:29:47;5.55;;;1.25;;
38222;SDS011;24024;51.186;6.458;2023-09-19T14:32:20;3.60;;;1.13;;
38222;SDS011;24024;51.186;6.458;2023-09-19T14:34:49;3.72;;;0.82;;
38222;SDS011;24024;51.186;6.458;2023-09-19T14:37:18;4.57;;;1.00;;
38222;SDS011;24024;51.186;6.458;2023-09-19T14:39:47;6.45;;;1.17;;
38222;SDS011;24024;51.186;6.458;2023-09-19T14:42:16;4.82;;;1.00;;
38222;SDS011;24024;51.186;6.458;2023-09-19T14:44:44;5.10;;;1.27;;
38222;SDS011;24024;51.186;6.458;2023-09-19T14:47:14;3.38;;;0.90;;
38222;SDS011;24024;51.186;6.458;2023-09-19T14:49:45;3.63;;;1.15;;
38222;SDS011;24024;51.186;6.458;2023-09-19T14:52:11;4.90;;;1.13;;
38222;SDS011;24024;51.186;6.458;2023-09-19T14:54:42;3.25;;;0.90;;
38222;SDS011;24024;51.186;6.458;2023-09-19T14:57:09;5.45;;;0.98;;
38222;SDS011;24024;51.186;6.458;2023-09-19T14:59:36;5.40;;;0.85;;
38222;SDS011;24024;51.186;6.458;2023-09-19T15:02:05;4.82;;;1.00;;
38222;SDS011;24024;51.186;6.458;2023-09-19T15:04:36;3.60;;;0.95;;
38222;SDS011;24024;51.186;6.458;2023-09-19T15:07:07;4.95;;;1.23;;
38222;SDS011;24024;51.186;6.458;2023-09-19T15:09:40;3.72;;;1.00;;
38222;SDS011;24024;51.186;6.458;2023-09-19T15:12:08;3.35;;;0.98;;
38222;SDS011;24024;51.186;6.458;2023-09-19T15:14:35;3.03;;;0.95;;
38222;SDS011;24024;51.186;6.458;2023-09-19T15:17:02;3.22;;;0.90;;
38222;SDS011;24024;51.186;6.458;2023-09-19T15:19:31;6.38;;;1.17;;
38222;SDS011;24024;51.186;6.458;2023-09-19T15:21:58;3.65;;;1.00;;
38222;SDS011;24024;51.186;6.458;2023-09-19T15:24:25;4.00;;;1.00;;
38222;SDS011;24024;51.186;6.458;2023-09-19T15:26:52;3.38;;;0.90;;
38222;SDS011;24024;51.186;6.458;2023-09-19T15:29:21;5.32;;;1.00;;
38222;SDS011;24024;51.186;6.458;2023-09-19T15:31:49;3.55;;;0.80;;
38222;SDS011;24024;51.186;6.458;2023-09-19T15:34:16;3.88;;;0.88;;
38222;SDS011;24024;51.186;6.458;2023-09-19T15:36:45;5.35;;;1.00;;
38222;SDS011;24024;51.186;6.458;2023-09-19T15:39:12;4.50;;;1.00;;
38222;SDS011;24024;51.186;6.458;2023-09-19T15:41:42;4.15;;;1.15;;
38222;SDS011;24024;51.186;6.458;2023-09-19T15:44:13;3.40;;;0.82;;
38222;SDS011;24024;51.186;6.458;2023-09-19T15:46:42;6.05;;;1.10;;
38222;SDS011;24024;51.186;6.458;2023-09-19T15:49:09;7.88;;;1.10;;
38222;SDS011;24024;51.186;6.458;2023-09-19T15:51:39;3.30;;;1.00;;
38222;SDS011;24024;51.186;6.458;2023-09-19T15:54:13;5.00;;;1.00;;
38222;SDS011;24024;51.186;6.458;2023-09-19T15:56:43;5.90;;;0.90;;
38222;SDS011;24024;51.186;6.458;2023-09-19T15:59:11;4.57;;;0.85;;
38222;SDS011;24024;51.186;6.458;2023-09-19T16:01:44;3.50;;;1.02;;
38222;SDS011;24024;51.186;6.458;2023-09-19T16:04:11;2.92;;;0.80;;
38222;SDS011;24024;51.186;6.458;2023-09-19T16:06:40;2.90;;;0.90;;
38222;SDS011;24024;51.186;6.458;2023-09-19T16:09:08;3.10;;;0.90;;
38222;SDS011;24024;51.186;6.458;2023-09-19T16:11:36;4.00;;;0.98;;
38222;SDS011;24024;51.186;6.458;2023-09-19T16:14:03;5.82;;;1.00;;
38222;SDS011;24024;51.186;6.458;2023-09-19T16:16:32;4.45;;;0.80;;
38222;SDS011;24024;51.186;6.458;2023-09-19T16:19:02;5.28;;;1.30;;
38222;SDS011;24024;51.186;6.458;2023-09-19T16:21:31;3.97;;;0.85;;
38222;SDS011;24024;51.186;6.458;2023-09-19T16:23:59;4.00;;;1.20;;
38222;SDS011;24024;51.186;6.458;2023-09-19T16:26:27;4.35;;;0.90;;
38222;SDS011;24024;51.186;6.458;2023-09-19T16:28:56;5.18;;;1.10;;
38222;SDS011;24024;51.186;6.458;2023-09-19T16:31:27;4.18;;;1.40;;